sensor_id;sensor_type;location;lat;lon;timestamp;pressure;altitude;pressure_sealevel;temperature;humidity
19827;BME280;10074;52.018;4.726;2022-09-09T00:02:16;46331.53;;;-144.79;100.00
19827;BME280;10074;52.018;4.726;2022-09-09T00:07:23;46333.53;;;-144.79;100.00
19827;BME280;10074;52.018;4.726;2022-09-09T00:12:37;46339.56;;;-144.79;100.00
19827;BME280;10074;52.018;4.726;2022-09-09T00:17:57;46339.56;;;-144.79;100.00
19827;BME280;10074;52.018;4.726;2022-09-09T00:23:12;46335.53;;;-144.79;100.00
19827;BME280;10074;52.018;4.726;2022-09-09T00:28:18;46341.56;;;-144.79;100.00
19827;BME280;10074;52.018;4.726;2022-09-09T00:33:20;46345.56;;;-144.79;100.00
19827;BME280;10074;52.018;4.726;2022-09-09T00:43:33;46343.56;;;-144.79;100.00
19827;BME280;10074;52.018;4.726;2022-09-09T00:48:47;46339.56;;;-144.79;100.00
19827;BME280;10074;52.018;4.726;2022-09-09T01:04:16;46343.56;;;-144.79;100.00
19827;BME280;10074;52.018;4.726;2022-09-09T01:09:29;46343.56;;;-144.79;100.00
19827;BME280;10074;52.018;4.726;2022-09-09T01:25:07;46335.53;;;-144.79;100.00
19827;BME280;10074;52.018;4.726;2022-09-09T01:30:15;46343.56;;;-144.79;100.00
19827;BME280;10074;52.018;4.726;2022-09-09T01:35:37;46351.59;;;-144.79;100.00
19827;BME280;10074;52.018;4.726;2022-09-09T01:40:39;46351.59;;;-144.79;100.00
19827;BME280;10074;52.018;4.726;2022-09-09T01:45:41;46351.59;;;-144.79;100.00
19827;BME280;10074;52.018;4.726;2022-09-09T01:50:42;46355.59;;;-144.79;100.00
19827;BME280;10074;52.018;4.726;2022-09-09T02:00:58;46367.63;;;-144.79;100.00
19827;BME280;10074;52.018;4.726;2022-09-09T02:06:14;46361.63;;;-144.79;100.00
19827;BME280;10074;52.018;4.726;2022-09-09T02:11:22;46371.63;;;-144.79;100.00
19827;BME280;10074;52.018;4.726;2022-09-09T02:16:34;46377.66;;;-144.79;100.00
19827;BME280;10074;52.018;4.726;2022-09-09T02:21:39;46391.69;;;-144.79;100.00
19827;BME280;10074;52.018;4.726;2022-09-09T02:26:43;46385.69;;;-144.79;100.00
19827;BME280;10074;52.018;4.726;2022-09-09T02:31:47;46379.66;;;-144.79;100.00
19827;BME280;10074;52.018;4.726;2022-09-09T02:36:49;46389.69;;;-144.79;100.00
19827;BME280;10074;52.018;4.726;2022-09-09T02:41:51;46393.69;;;-144.79;100.00
19827;BME280;10074;52.018;4.726;2022-09-09T02:47:10;46385.69;;;-144.79;100.00
19827;BME280;10074;52.018;4.726;2022-09-09T02:52:25;46391.69;;;-144.79;100.00
19827;BME280;10074;52.018;4.726;2022-09-09T02:57:28;46397.72;;;-144.79;100.00
19827;BME280;10074;52.018;4.726;2022-09-09T03:02:30;46385.69;;;-144.79;100.00
19827;BME280;10074;52.018;4.726;2022-09-09T03:07:31;46383.66;;;-144.79;100.00
19827;BME280;10074;52.018;4.726;2022-09-09T03:12:31;46391.69;;;-144.79;100.00
19827;BME280;10074;52.018;4.726;2022-09-09T03:17:34;46393.69;;;-144.79;100.00
19827;BME280;10074;52.018;4.726;2022-09-09T03:22:34;46387.69;;;-144.79;100.00
19827;BME280;10074;52.018;4.726;2022-09-09T03:27:35;46387.69;;;-144.79;100.00
19827;BME280;10074;52.018;4.726;2022-09-09T03:32:36;46401.72;;;-144.79;100.00
19827;BME280;10074;52.018;4.726;2022-09-09T03:37:36;46397.72;;;-144.79;100.00
19827;BME280;10074;52.018;4.726;2022-09-09T03:42:38;46397.72;;;-144.79;100.00
19827;BME280;10074;52.018;4.726;2022-09-09T03:47:39;46391.69;;;-144.79;100.00
19827;BME280;10074;52.018;4.726;2022-09-09T03:52:40;46403.72;;;-144.79;100.00
19827;BME280;10074;52.018;4.726;2022-09-09T03:57:42;46403.72;;;-144.79;100.00
19827;BME280;10074;52.018;4.726;2022-09-09T04:02:42;46407.72;;;-144.79;100.00
19827;BME280;10074;52.018;4.726;2022-09-09T04:07:43;46403.72;;;-144.79;100.00
19827;BME280;10074;52.018;4.726;2022-09-09T04:12:44;46405.72;;;-144.79;100.00
19827;BME280;10074;52.018;4.726;2022-09-09T04:17:44;46403.72;;;-144.79;100.00
19827;BME280;10074;52.018;4.726;2022-09-09T04:22:45;46405.72;;;-144.79;100.00
19827;BME280;10074;52.018;4.726;2022-09-09T04:27:45;46399.72;;;-144.79;100.00
19827;BME280;10074;52.018;4.726;2022-09-09T04:32:46;46399.72;;;-144.79;100.00
19827;BME280;10074;52.018;4.726;2022-09-09T04:37:47;46393.69;;;-144.79;100.00
19827;BME280;10074;52.018;4.726;2022-09-09T04:42:48;46393.69;;;-144.79;100.00
19827;BME280;10074;52.018;4.726;2022-09-09T04:47:50;46399.72;;;-144.79;100.00
19827;BME280;10074;52.018;4.726;2022-09-09T04:52:50;46391.69;;;-144.79;100.00
19827;BME280;10074;52.018;4.726;2022-09-09T04:57:51;46407.72;;;-144.79;100.00
19827;BME280;10074;52.018;4.726;2022-09-09T05:02:51;46409.75;;;-144.79;100.00
19827;BME280;10074;52.018;4.726;2022-09-09T05:07:51;46415.75;;;-144.79;100.00
19827;BME280;10074;52.018;4.726;2022-09-09T05:12:52;46415.75;;;-144.79;100.00
19827;BME280;10074;52.018;4.726;2022-09-09T05:18:00;46411.75;;;-144.79;100.00
19827;BME280;10074;52.018;4.726;2022-09-09T05:23:00;46411.75;;;-144.79;100.00
19827;BME280;10074;52.018;4.726;2022-09-09T05:28:01;46415.75;;;-144.79;100.00
19827;BME280;10074;52.018;4.726;2022-09-09T05:33:01;46419.75;;;-144.79;100.00
19827;BME280;10074;52.018;4.726;2022-09-09T05:38:01;46419.75;;;-144.79;100.00
19827;BME280;10074;52.018;4.726;2022-09-09T05:43:02;46425.78;;;-144.79;100.00
19827;BME280;10074;52.018;4.726;2022-09-09T05:48:02;46429.78;;;-144.79;100.00
19827;BME280;10074;52.018;4.726;2022-09-09T05:53:02;46429.78;;;-144.79;100.00
19827;BME280;10074;52.018;4.726;2022-09-09T05:58:03;46439.81;;;-144.79;100.00
19827;BME280;10074;52.018;4.726;2022-09-09T06:03:04;46435.81;;;-144.79;100.00
19827;BME280;10074;52.018;4.726;2022-09-09T06:08:04;46445.84;;;-144.79;100.00
19827;BME280;10074;52.018;4.726;2022-09-09T06:13:04;46443.81;;;-144.79;100.00
19827;BME280;10074;52.018;4.726;2022-09-09T06:18:05;46451.84;;;-144.79;100.00
19827;BME280;10074;52.018;4.726;2022-09-09T06:23:05;46451.84;;;-144.79;100.00
19827;BME280;10074;52.018;4.726;2022-09-09T06:28:05;46447.84;;;-144.79;100.00
19827;BME280;10074;52.018;4.726;2022-09-09T06:33:05;46451.84;;;-144.79;100.00
19827;BME280;10074;52.018;4.726;2022-09-09T06:38:06;46451.84;;;-144.79;100.00
19827;BME280;10074;52.018;4.726;2022-09-09T06:43:06;46451.84;;;-144.79;100.00
19827;BME280;10074;52.018;4.726;2022-09-09T06:48:06;46453.84;;;-144.79;100.00
19827;BME280;10074;52.018;4.726;2022-09-09T06:53:07;46455.84;;;-144.79;100.00
19827;BME280;10074;52.018;4.726;2022-09-09T06:58:10;46455.84;;;-144.79;100.00
19827;BME280;10074;52.018;4.726;2022-09-09T07:03:10;46459.88;;;-144.79;100.00
19827;BME280;10074;52.018;4.726;2022-09-09T07:08:11;46457.88;;;-144.79;100.00
19827;BME280;10074;52.018;4.726;2022-09-09T07:13:11;46459.88;;;-144.79;100.00
19827;BME280;10074;52.018;4.726;2022-09-09T07:18:12;46459.88;;;-144.79;100.00
19827;BME280;10074;52.018;4.726;2022-09-09T07:23:12;46459.88;;;-144.79;100.00
19827;BME280;10074;52.018;4.726;2022-09-09T07:28:13;46455.84;;;-144.79;100.00
19827;BME280;10074;52.018;4.726;2022-09-09T07:33:14;46459.88;;;-144.79;100.00
19827;BME280;10074;52.018;4.726;2022-09-09T07:38:14;46453.84;;;-144.79;100.00
19827;BME280;10074;52.018;4.726;2022-09-09T07:43:14;46455.84;;;-144.79;100.00
19827;BME280;10074;52.018;4.726;2022-09-09T07:48:17;46459.88;;;-144.79;100.00
19827;BME280;10074;52.018;4.726;2022-09-09T07:53:17;46453.84;;;-144.79;100.00
19827;BME280;10074;52.018;4.726;2022-09-09T07:58:19;46451.84;;;-144.79;100.00
19827;BME280;10074;52.018;4.726;2022-09-09T08:03:20;46449.84;;;-144.79;100.00
19827;BME280;10074;52.018;4.726;2022-09-09T08:08:22;46449.84;;;-144.79;100.00
19827;BME280;10074;52.018;4.726;2022-09-09T08:13:22;46453.84;;;-144.79;100.00
19827;BME280;10074;52.018;4.726;2022-09-09T08:18:23;46453.84;;;-144.79;100.00
19827;BME280;10074;52.018;4.726;2022-09-09T08:23:23;46443.81;;;-144.79;100.00
19827;BME280;10074;52.018;4.726;2022-09-09T08:28:24;46439.81;;;-144.79;100.00
19827;BME280;10074;52.018;4.726;2022-09-09T08:33:24;46439.81;;;-144.79;100.00
19827;BME280;10074;52.018;4.726;2022-09-09T08:38:25;46443.81;;;-144.79;100.00
19827;BME280;10074;52.018;4.726;2022-09-09T08:43:27;46433.81;;;-144.79;100.00
19827;BME280;10074;52.018;4.726;2022-09-09T08:53:58;46441.81;;;-144.79;100.00
19827;BME280;10074;52.018;4.726;2022-09-09T08:59:02;46425.78;;;-144.79;100.00
19827;BME280;10074;52.018;4.726;2022-09-09T09:09:32;46443.81;;;-144.79;100.00
19827;BME280;10074;52.018;4.726;2022-09-09T09:14:37;46439.81;;;-144.79;100.00
19827;BME280;10074;52.018;4.726;2022-09-09T09:19:40;46423.78;;;-144.79;100.00
19827;BME280;10074;52.018;4.726;2022-09-09T09:24:52;46411.75;;;-144.79;100.00
19827;BME280;10074;52.018;4.726;2022-09-09T09:29:55;46431.78;;;-144.79;100.00
19827;BME280;10074;52.018;4.726;2022-09-09T09:34:57;46441.81;;;-144.79;100.00
19827;BME280;10074;52.018;4.726;2022-09-09T09:40:08;46425.78;;;-144.79;100.00
19827;BME280;10074;52.018;4.726;2022-09-09T09:45:43;46443.81;;;-144.79;100.00
19827;BME280;10074;52.018;4.726;2022-09-09T09:50:55;46445.84;;;-144.79;100.00
19827;BME280;10074;52.018;4.726;2022-09-09T09:55:58;46443.81;;;-144.79;100.00
19827;BME280;10074;52.018;4.726;2022-09-09T10:01:00;46439.81;;;-144.79;100.00
19827;BME280;10074;52.018;4.726;2022-09-09T10:06:01;46447.84;;;-144.79;100.00
19827;BME280;10074;52.018;4.726;2022-09-09T10:32:40;46461.88;;;-144.79;100.00
19827;BME280;10074;52.018;4.726;2022-09-09T10:38:20;46459.88;;;-144.79;100.00
19827;BME280;10074;52.018;4.726;2022-09-09T10:54:16;46459.88;;;-144.79;100.00
19827;BME280;10074;52.018;4.726;2022-09-09T10:59:26;46461.88;;;-144.79;100.00
19827;BME280;10074;52.018;4.726;2022-09-09T11:04:41;46463.88;;;-144.79;100.00
19827;BME280;10074;52.018;4.726;2022-09-09T11:09:49;46465.88;;;-144.79;100.00
19827;BME280;10074;52.018;4.726;2022-09-09T11:15:01;46451.84;;;-144.79;100.00
19827;BME280;10074;52.018;4.726;2022-09-09T11:20:05;46457.88;;;-144.79;100.00
19827;BME280;10074;52.018;4.726;2022-09-09T11:25:18;46457.88;;;-144.79;100.00
19827;BME280;10074;52.018;4.726;2022-09-09T11:30:20;46431.78;;;-144.79;100.00
19827;BME280;10074;52.018;4.726;2022-09-09T11:40:46;46461.88;;;-144.79;100.00
19827;BME280;10074;52.018;4.726;2022-09-09T11:45:52;46459.88;;;-144.79;100.00
19827;BME280;10074;52.018;4.726;2022-09-09T11:50:59;46463.88;;;-144.79;100.00
19827;BME280;10074;52.018;4.726;2022-09-09T11:56:11;46465.88;;;-144.79;100.00
19827;BME280;10074;52.018;4.726;2022-09-09T12:01:27;46459.88;;;-144.79;100.00
19827;BME280;10074;52.018;4.726;2022-09-09T12:06:42;46465.88;;;-144.79;100.00
19827;BME280;10074;52.018;4.726;2022-09-09T12:11:43;46461.88;;;-144.79;100.00
19827;BME280;10074;52.018;4.726;2022-09-09T12:16:43;46463.88;;;-144.79;100.00
19827;BME280;10074;52.018;4.726;2022-09-09T12:27:01;46459.88;;;-144.79;100.00
19827;BME280;10074;52.018;4.726;2022-09-09T12:32:26;46459.88;;;-144.79;100.00
19827;BME280;10074;52.018;4.726;2022-09-09T12:37:35;46465.88;;;-144.79;100.00
19827;BME280;10074;52.018;4.726;2022-09-09T12:42:39;46467.88;;;-144.79;100.00
19827;BME280;10074;52.018;4.726;2022-09-09T12:47:45;46467.88;;;-144.79;100.00
19827;BME280;10074;52.018;4.726;2022-09-09T12:52:51;46461.88;;;-144.79;100.00
19827;BME280;10074;52.018;4.726;2022-09-09T12:57:53;46461.88;;;-144.79;100.00
19827;BME280;10074;52.018;4.726;2022-09-09T13:02:56;46465.88;;;-144.79;100.00
19827;BME280;10074;52.018;4.726;2022-09-09T13:08:08;46459.88;;;-144.79;100.00
19827;BME280;10074;52.018;4.726;2022-09-09T13:13:14;46463.88;;;-144.79;100.00
19827;BME280;10074;52.018;4.726;2022-09-09T13:18:17;46463.88;;;-144.79;100.00
19827;BME280;10074;52.018;4.726;2022-09-09T13:23:20;46463.88;;;-144.79;100.00
19827;BME280;10074;52.018;4.726;2022-09-09T13:28:23;46463.88;;;-144.79;100.00
19827;BME280;10074;52.018;4.726;2022-09-09T13:33:30;46463.88;;;-144.79;100.00
19827;BME280;10074;52.018;4.726;2022-09-09T13:38:53;46461.88;;;-144.79;100.00
19827;BME280;10074;52.018;4.726;2022-09-09T13:43:54;46463.88;;;-144.79;100.00
19827;BME280;10074;52.018;4.726;2022-09-09T13:49:19;46465.88;;;-144.79;100.00
19827;BME280;10074;52.018;4.726;2022-09-09T13:54:20;46463.88;;;-144.79;100.00
19827;BME280;10074;52.018;4.726;2022-09-09T13:59:20;46463.88;;;-144.79;100.00
19827;BME280;10074;52.018;4.726;2022-09-09T14:04:21;46463.88;;;-144.79;100.00
19827;BME280;10074;52.018;4.726;2022-09-09T14:09:21;46459.88;;;-144.79;100.00
19827;BME280;10074;52.018;4.726;2022-09-09T14:14:22;46461.88;;;-144.79;100.00
19827;BME280;10074;52.018;4.726;2022-09-09T14:19:22;46461.88;;;-144.79;100.00
19827;BME280;10074;52.018;4.726;2022-09-09T14:24:22;46463.88;;;-144.79;100.00
19827;BME280;10074;52.018;4.726;2022-09-09T14:29:23;46463.88;;;-144.79;100.00
19827;BME280;10074;52.018;4.726;2022-09-09T14:34:25;46463.88;;;-144.79;100.00
19827;BME280;10074;52.018;4.726;2022-09-09T14:39:25;46465.88;;;-144.79;100.00
19827;BME280;10074;52.018;4.726;2022-09-09T14:44:26;46465.88;;;-144.79;100.00
19827;BME280;10074;52.018;4.726;2022-09-09T14:49:26;46465.88;;;-144.79;100.00
19827;BME280;10074;52.018;4.726;2022-09-09T14:54:26;46459.88;;;-144.79;100.00
19827;BME280;10074;52.018;4.726;2022-09-09T14:59:28;46463.88;;;-144.79;100.00
19827;BME280;10074;52.018;4.726;2022-09-09T15:04:28;46461.88;;;-144.79;100.00
19827;BME280;10074;52.018;4.726;2022-09-09T15:09:28;46459.88;;;-144.79;100.00
19827;BME280;10074;52.018;4.726;2022-09-09T15:14:29;46463.88;;;-144.79;100.00
19827;BME280;10074;52.018;4.726;2022-09-09T15:19:30;46459.88;;;-144.79;100.00
19827;BME280;10074;52.018;4.726;2022-09-09T15:24:32;46459.88;;;-144.79;100.00
19827;BME280;10074;52.018;4.726;2022-09-09T15:29:32;46467.88;;;-144.79;100.00
19827;BME280;10074;52.018;4.726;2022-09-09T15:34:33;46463.88;;;-144.79;100.00
19827;BME280;10074;52.018;4.726;2022-09-09T15:39:33;46463.88;;;-144.79;100.00
19827;BME280;10074;52.018;4.726;2022-09-09T15:44:41;46465.88;;;-144.79;100.00
19827;BME280;10074;52.018;4.726;2022-09-09T15:49:42;46463.88;;;-144.79;100.00
19827;BME280;10074;52.018;4.726;2022-09-09T15:54:42;46465.88;;;-144.79;100.00
19827;BME280;10074;52.018;4.726;2022-09-09T15:59:43;46459.88;;;-144.79;100.00
19827;BME280;10074;52.018;4.726;2022-09-09T16:04:45;46463.88;;;-144.79;100.00
19827;BME280;10074;52.018;4.726;2022-09-09T16:09:45;46467.88;;;-144.79;100.00
19827;BME280;10074;52.018;4.726;2022-09-09T16:14:45;46467.88;;;-144.79;100.00
19827;BME280;10074;52.018;4.726;2022-09-09T16:19:46;46463.88;;;-144.79;100.00
19827;BME280;10074;52.018;4.726;2022-09-09T16:24:46;46465.88;;;-144.79;100.00
19827;BME280;10074;52.018;4.726;2022-09-09T16:29:46;46469.88;;;-144.79;100.00
19827;BME280;10074;52.018;4.726;2022-09-09T16:34:47;46463.88;;;-144.79;100.00
19827;BME280;10074;52.018;4.726;2022-09-09T16:39:47;46465.88;;;-144.79;100.00
19827;BME280;10074;52.018;4.726;2022-09-09T16:44:47;46461.88;;;-144.79;100.00
19827;BME280;10074;52.018;4.726;2022-09-09T16:49:49;46467.88;;;-144.79;100.00
19827;BME280;10074;52.018;4.726;2022-09-09T16:54:50;46463.88;;;-144.79;100.00
19827;BME280;10074;52.018;4.726;2022-09-09T16:59:50;46465.88;;;-144.79;100.00
19827;BME280;10074;52.018;4.726;2022-09-09T17:04:54;46463.88;;;-144.79;100.00
19827;BME280;10074;52.018;4.726;2022-09-09T17:09:54;46461.88;;;-144.79;100.00
19827;BME280;10074;52.018;4.726;2022-09-09T17:14:54;46463.88;;;-144.79;100.00
19827;BME280;10074;52.018;4.726;2022-09-09T17:19:55;46469.88;;;-144.79;100.00
19827;BME280;10074;52.018;4.726;2022-09-09T17:24:56;46465.88;;;-144.79;100.00
19827;BME280;10074;52.018;4.726;2022-09-09T17:29:56;46467.88;;;-144.79;100.00
19827;BME280;10074;52.018;4.726;2022-09-09T17:34:57;46463.88;;;-144.79;100.00
19827;BME280;10074;52.018;4.726;2022-09-09T17:39:57;46467.88;;;-144.79;100.00
19827;BME280;10074;52.018;4.726;2022-09-09T17:44:58;46467.88;;;-144.79;100.00
19827;BME280;10074;52.018;4.726;2022-09-09T17:49:58;46465.88;;;-144.79;100.00
19827;BME280;10074;52.018;4.726;2022-09-09T17:54:58;46463.88;;;-144.79;100.00
19827;BME280;10074;52.018;4.726;2022-09-09T17:59:59;46467.88;;;-144.79;100.00
19827;BME280;10074;52.018;4.726;2022-09-09T18:05:00;46463.88;;;-144.79;100.00
19827;BME280;10074;52.018;4.726;2022-09-09T18:10:01;46465.88;;;-144.79;100.00
19827;BME280;10074;52.018;4.726;2022-09-09T18:15:02;46465.88;;;-144.79;100.00
19827;BME280;10074;52.018;4.726;2022-09-09T18:20:02;46463.88;;;-144.79;100.00
19827;BME280;10074;52.018;4.726;2022-09-09T18:25:04;46461.88;;;-144.79;100.00
19827;BME280;10074;52.018;4.726;2022-09-09T18:30:05;46467.88;;;-144.79;100.00
19827;BME280;10074;52.018;4.726;2022-09-09T18:35:05;46467.88;;;-144.79;100.00
19827;BME280;10074;52.018;4.726;2022-09-09T18:40:06;46467.88;;;-144.79;100.00
19827;BME280;10074;52.018;4.726;2022-09-09T18:45:06;46471.91;;;-144.79;100.00
19827;BME280;10074;52.018;4.726;2022-09-09T18:50:07;46467.88;;;-144.79;100.00
19827;BME280;10074;52.018;4.726;2022-09-09T18:55:08;46465.88;;;-144.79;100.00
19827;BME280;10074;52.018;4.726;2022-09-09T19:00:09;46463.88;;;-144.79;100.00
19827;BME280;10074;52.018;4.726;2022-09-09T19:05:09;46467.88;;;-144.79;100.00
19827;BME280;10074;52.018;4.726;2022-09-09T19:10:09;46461.88;;;-144.79;100.00
19827;BME280;10074;52.018;4.726;2022-09-09T19:15:10;46467.88;;;-144.79;100.00
19827;BME280;10074;52.018;4.726;2022-09-09T19:20:10;46467.88;;;-144.79;100.00
19827;BME280;10074;52.018;4.726;2022-09-09T19:25:10;46467.88;;;-144.79;100.00
19827;BME280;10074;52.018;4.726;2022-09-09T19:30:11;46467.88;;;-144.79;100.00
19827;BME280;10074;52.018;4.726;2022-09-09T19:35:12;46463.88;;;-144.79;100.00
19827;BME280;10074;52.018;4.726;2022-09-09T19:40:13;46465.88;;;-144.79;100.00
19827;BME280;10074;52.018;4.726;2022-09-09T19:45:13;46471.91;;;-144.79;100.00
19827;BME280;10074;52.018;4.726;2022-09-09T19:50:13;46467.88;;;-144.79;100.00
19827;BME280;10074;52.018;4.726;2022-09-09T19:55:13;46463.88;;;-144.79;100.00
19827;BME280;10074;52.018;4.726;2022-09-09T20:00:14;46461.88;;;-144.79;100.00
19827;BME280;10074;52.018;4.726;2022-09-09T20:05:14;46469.88;;;-144.79;100.00
19827;BME280;10074;52.018;4.726;2022-09-09T20:10:14;46467.88;;;-144.79;100.00
19827;BME280;10074;52.018;4.726;2022-09-09T20:15:15;46461.88;;;-144.79;100.00
19827;BME280;10074;52.018;4.726;2022-09-09T20:20:15;46469.88;;;-144.79;100.00
19827;BME280;10074;52.018;4.726;2022-09-09T20:25:15;46467.88;;;-144.79;100.00
19827;BME280;10074;52.018;4.726;2022-09-09T20:30:16;46467.88;;;-144.79;100.00
19827;BME280;10074;52.018;4.726;2022-09-09T20:35:16;46467.88;;;-144.79;100.00
19827;BME280;10074;52.018;4.726;2022-09-09T20:40:16;46467.88;;;-144.79;100.00
19827;BME280;10074;52.018;4.726;2022-09-09T20:45:18;46471.91;;;-144.79;100.00
19827;BME280;10074;52.018;4.726;2022-09-09T20:50:18;46465.88;;;-144.79;100.00
19827;BME280;10074;52.018;4.726;2022-09-09T20:55:18;46465.88;;;-144.79;100.00
19827;BME280;10074;52.018;4.726;2022-09-09T21:00:19;46467.88;;;-144.79;100.00
19827;BME280;10074;52.018;4.726;2022-09-09T21:05:19;46465.88;;;-144.79;100.00
19827;BME280;10074;52.018;4.726;2022-09-09T21:10:19;46467.88;;;-144.79;100.00
19827;BME280;10074;52.018;4.726;2022-09-09T21:15:19;46465.88;;;-144.79;100.00
19827;BME280;10074;52.018;4.726;2022-09-09T21:20:20;46465.88;;;-144.79;100.00
19827;BME280;10074;52.018;4.726;2022-09-09T21:25:20;46467.88;;;-144.79;100.00
19827;BME280;10074;52.018;4.726;2022-09-09T21:30:22;46467.88;;;-144.79;100.00
19827;BME280;10074;52.018;4.726;2022-09-09T21:35:23;46465.88;;;-144.79;100.00
19827;BME280;10074;52.018;4.726;2022-09-09T21:40:24;46467.88;;;-144.79;100.00
19827;BME280;10074;52.018;4.726;2022-09-09T21:45:25;46469.88;;;-144.79;100.00
19827;BME280;10074;52.018;4.726;2022-09-09T21:50:27;46467.88;;;-144.79;100.00
19827;BME280;10074;52.018;4.726;2022-09-09T21:55:27;46465.88;;;-144.79;100.00
19827;BME280;10074;52.018;4.726;2022-09-09T22:00:28;46463.88;;;-144.79;100.00
19827;BME280;10074;52.018;4.726;2022-09-09T22:05:29;46467.88;;;-144.79;100.00
19827;BME280;10074;52.018;4.726;2022-09-09T22:10:30;46465.88;;;-144.79;100.00
19827;BME280;10074;52.018;4.726;2022-09-09T22:15:30;46465.88;;;-144.79;100.00
19827;BME280;10074;52.018;4.726;2022-09-09T22:20:32;46467.88;;;-144.79;100.00
19827;BME280;10074;52.018;4.726;2022-09-09T22:25:39;46467.88;;;-144.79;100.00
19827;BME280;10074;52.018;4.726;2022-09-09T22:30:39;46463.88;;;-144.79;100.00
19827;BME280;10074;52.018;4.726;2022-09-09T22:35:40;46467.88;;;-144.79;100.00
19827;BME280;10074;52.018;4.726;2022-09-09T22:40:41;46467.88;;;-144.79;100.00
19827;BME280;10074;52.018;4.726;2022-09-09T22:45:42;46463.88;;;-144.79;100.00
19827;BME280;10074;52.018;4.726;2022-09-09T22:50:43;46461.88;;;-144.79;100.00
19827;BME280;10074;52.018;4.726;2022-09-09T22:55:55;46467.88;;;-144.79;100.00
19827;BME280;10074;52.018;4.726;2022-09-09T23:00:58;46467.88;;;-144.79;100.00
19827;BME280;10074;52.018;4.726;2022-09-09T23:06:00;46465.88;;;-144.79;100.00
19827;BME280;10074;52.018;4.726;2022-09-09T23:11:05;46463.88;;;-144.79;100.00
19827;BME280;10074;52.018;4.726;2022-09-09T23:16:20;46465.88;;;-144.79;100.00
19827;BME280;10074;52.018;4.726;2022-09-09T23:21:22;46467.88;;;-144.79;100.00
19827;BME280;10074;52.018;4.726;2022-09-09T23:26:26;46467.88;;;-144.79;100.00
19827;BME280;10074;52.018;4.726;2022-09-09T23:31:31;46469.88;;;-144.79;100.00
19827;BME280;10074;52.018;4.726;2022-09-09T23:36:32;46467.88;;;-144.79;100.00
19827;BME280;10074;52.018;4.726;2022-09-09T23:41:35;46465.88;;;-144.79;100.00
19827;BME280;10074;52.018;4.726;2022-09-09T23:46:35;46463.88;;;-144.79;100.00
19827;BME280;10074;52.018;4.726;2022-09-09T23:51:36;46463.88;;;-144.79;100.00
19827;BME280;10074;52.018;4.726;2022-09-09T23:56:38;46465.88;;;-144.79;100.00
